This is the latest recevied weather packets stored in our database for station/object LEMD. If no packets are shown the sender has not sent any weather packets the latest 10 day(s).
| Time | Temp. | Humidity | Pressure | Rain* | Wind** | Luminosity | Snow |
|---|---|---|---|---|---|---|---|
| 1778031904 | 7.78° C | 70% | 1013 hPa | - | - | - | - |
| 1778031005 | 8.89° C | 66% | 1013 hPa | - | - | - | - |
| 1778029204 | 8.89° C | 66% | 1014 hPa | - | - | - | - |
| 1778028304 | 8.89° C | 66% | 1014 hPa | - | - | - | - |
| 1778026503 | 8.89° C | 66% | 1013 hPa | - | - | - | - |
| 1778022003 | 12.22° C | 46% | 1013 hPa | - | - | - | - |
| 1778021104 | 12.22° C | 46% | 1013 hPa | - | - | - | - |
| 1778019305 | 12.22° C | 46% | 1013 hPa | - | - | - | - |
| 1778018406 | 13.89° C | 41% | 1013 hPa | - | - | - | - |
| 1778017504 | 13.89° C | 41% | 1013 hPa | - | - | - | - |
| 1778016605 | 15° C | 35% | 1013 hPa | - | - | - | - |
| 1778014805 | 15° C | 35% | 1013 hPa | - | - | - | - |
| 1778013903 | 15° C | 35% | 1013 hPa | - | - | - | - |
| 1778012104 | 15° C | 35% | 1012 hPa | - | - | - | - |
| 1778010303 | 16.11° C | 31% | 1012 hPa | - | - | - | - |
| 1778008504 | 17.22° C | 31% | 1012 hPa | - | - | - | - |
| 1778007605 | 17.78° C | 29% | 1011 hPa | - | - | - | - |
| 1778006703 | 17.78° C | 29% | 1011 hPa | - | - | - | - |
| 1778004905 | 17.78° C | 29% | 1011 hPa | - | - | - | - |
| 1778002204 | 18.89° C | 27% | 1011 hPa | - | - | - | - |
| 1778001304 | 18.89° C | 27% | 1011 hPa | - | - | - | - |
| 1777999504 | 18.89° C | 27% | 1011 hPa | - | - | - | - |
| 1777998605 | 18.89° C | 27% | 1011 hPa | - | - | - | - |
| 1777997704 | 18.89° C | 27% | 1011 hPa | - | - | - | - |
| 1777995903 | 18.89° C | 27% | 1012 hPa | - | - | - | - |
* Rain since midnight (hover to see other rain measurements)
** Current wind speed in m/s (hover to see current wind gust speed)